sensor_id;sensor_type;location;lat;lon;timestamp;P1;durP1;ratioP1;P2;durP2;ratioP2
10471;SDS011;5283;48.876;8.962;2023-08-01T00:05:25;8.90;;;5.50;;
10471;SDS011;5283;48.876;8.962;2023-08-01T00:07:52;8.63;;;5.70;;
10471;SDS011;5283;48.876;8.962;2023-08-01T00:10:19;8.27;;;5.80;;
10471;SDS011;5283;48.876;8.962;2023-08-01T00:12:46;6.67;;;5.03;;
10471;SDS011;5283;48.876;8.962;2023-08-01T00:15:15;8.37;;;5.83;;
10471;SDS011;5283;48.876;8.962;2023-08-01T00:17:42;6.77;;;5.27;;
10471;SDS011;5283;48.876;8.962;2023-08-01T00:20:10;8.60;;;6.10;;
10471;SDS011;5283;48.876;8.962;2023-08-01T00:22:38;6.30;;;5.50;;
10471;SDS011;5283;48.876;8.962;2023-08-01T00:25:05;10.13;;;5.73;;
10471;SDS011;5283;48.876;8.962;2023-08-01T00:27:33;8.83;;;5.83;;
10471;SDS011;5283;48.876;8.962;2023-08-01T00:30:01;8.30;;;6.07;;
10471;SDS011;5283;48.876;8.962;2023-08-01T00:32:28;10.57;;;6.13;;
10471;SDS011;5283;48.876;8.962;2023-08-01T00:34:56;6.40;;;5.73;;
10471;SDS011;5283;48.876;8.962;2023-08-01T00:37:22;8.80;;;5.90;;
10471;SDS011;5283;48.876;8.962;2023-08-01T00:39:50;9.13;;;6.13;;
10471;SDS011;5283;48.876;8.962;2023-08-01T00:42:17;8.63;;;6.00;;
10471;SDS011;5283;48.876;8.962;2023-08-01T00:44:44;9.73;;;5.93;;
10471;SDS011;5283;48.876;8.962;2023-08-01T00:47:14;8.20;;;5.60;;
10471;SDS011;5283;48.876;8.962;2023-08-01T00:49:41;9.83;;;5.67;;
10471;SDS011;5283;48.876;8.962;2023-08-01T00:52:08;9.30;;;5.80;;
10471;SDS011;5283;48.876;8.962;2023-08-01T00:54:36;5.83;;;4.87;;
10471;SDS011;5283;48.876;8.962;2023-08-01T00:57:04;8.47;;;5.63;;
10471;SDS011;5283;48.876;8.962;2023-08-01T00:59:32;8.03;;;5.43;;
10471;SDS011;5283;48.876;8.962;2023-08-01T01:01:59;7.47;;;5.50;;
10471;SDS011;5283;48.876;8.962;2023-08-01T01:04:26;7.30;;;5.00;;
10471;SDS011;5283;48.876;8.962;2023-08-01T01:06:59;8.37;;;5.83;;
10471;SDS011;5283;48.876;8.962;2023-08-01T01:09:29;8.00;;;5.13;;
10471;SDS011;5283;48.876;8.962;2023-08-01T01:11:58;12.30;;;5.10;;
10471;SDS011;5283;48.876;8.962;2023-08-01T01:14:27;6.50;;;5.63;;
10471;SDS011;5283;48.876;8.962;2023-08-01T01:16:55;6.03;;;4.87;;
10471;SDS011;5283;48.876;8.962;2023-08-01T01:19:22;6.77;;;4.90;;
10471;SDS011;5283;48.876;8.962;2023-08-01T01:21:49;11.07;;;5.07;;
10471;SDS011;5283;48.876;8.962;2023-08-01T01:24:16;5.63;;;4.73;;
10471;SDS011;5283;48.876;8.962;2023-08-01T01:26:45;7.07;;;4.60;;
10471;SDS011;5283;48.876;8.962;2023-08-01T01:29:14;8.97;;;4.90;;
10471;SDS011;5283;48.876;8.962;2023-08-01T01:31:47;6.87;;;4.87;;
10471;SDS011;5283;48.876;8.962;2023-08-01T01:34:15;7.47;;;4.83;;
10471;SDS011;5283;48.876;8.962;2023-08-01T01:36:43;9.50;;;5.10;;
10471;SDS011;5283;48.876;8.962;2023-08-01T01:39:10;8.90;;;5.20;;
10471;SDS011;5283;48.876;8.962;2023-08-01T01:41:37;7.93;;;5.57;;
10471;SDS011;5283;48.876;8.962;2023-08-01T01:44:04;8.03;;;5.27;;
10471;SDS011;5283;48.876;8.962;2023-08-01T01:46:31;7.73;;;5.60;;
10471;SDS011;5283;48.876;8.962;2023-08-01T01:48:59;11.03;;;6.30;;
10471;SDS011;5283;48.876;8.962;2023-08-01T01:51:26;8.10;;;6.00;;
10471;SDS011;5283;48.876;8.962;2023-08-01T01:53:54;7.93;;;6.00;;
10471;SDS011;5283;48.876;8.962;2023-08-01T01:56:21;7.73;;;5.77;;
10471;SDS011;5283;48.876;8.962;2023-08-01T01:58:48;8.03;;;5.80;;
10471;SDS011;5283;48.876;8.962;2023-08-01T02:01:15;10.23;;;6.13;;
10471;SDS011;5283;48.876;8.962;2023-08-01T02:03:44;7.20;;;6.13;;
10471;SDS011;5283;48.876;8.962;2023-08-01T02:06:11;8.03;;;5.93;;
10471;SDS011;5283;48.876;8.962;2023-08-01T02:08:38;8.37;;;6.13;;
10471;SDS011;5283;48.876;8.962;2023-08-01T02:11:05;8.43;;;6.30;;
10471;SDS011;5283;48.876;8.962;2023-08-01T02:13:32;9.63;;;6.03;;
10471;SDS011;5283;48.876;8.962;2023-08-01T02:16:00;9.53;;;6.20;;
10471;SDS011;5283;48.876;8.962;2023-08-01T02:18:27;9.23;;;6.33;;
10471;SDS011;5283;48.876;8.962;2023-08-01T02:20:54;9.53;;;6.33;;
10471;SDS011;5283;48.876;8.962;2023-08-01T02:23:23;8.63;;;6.67;;
10471;SDS011;5283;48.876;8.962;2023-08-01T02:25:51;9.73;;;6.40;;
10471;SDS011;5283;48.876;8.962;2023-08-01T02:28:18;8.73;;;6.87;;
10471;SDS011;5283;48.876;8.962;2023-08-01T02:30:45;10.37;;;6.90;;
10471;SDS011;5283;48.876;8.962;2023-08-01T02:33:12;10.30;;;7.10;;
10471;SDS011;5283;48.876;8.962;2023-08-01T02:35:39;10.77;;;7.10;;
10471;SDS011;5283;48.876;8.962;2023-08-01T02:38:07;7.57;;;6.57;;
10471;SDS011;5283;48.876;8.962;2023-08-01T02:40:34;10.50;;;6.90;;
10471;SDS011;5283;48.876;8.962;2023-08-01T02:43:01;9.70;;;6.93;;
10471;SDS011;5283;48.876;8.962;2023-08-01T02:45:28;10.17;;;7.00;;
10471;SDS011;5283;48.876;8.962;2023-08-01T02:47:55;8.90;;;6.60;;
10471;SDS011;5283;48.876;8.962;2023-08-01T02:50:23;10.37;;;6.83;;
10471;SDS011;5283;48.876;8.962;2023-08-01T02:52:50;9.43;;;7.10;;
10471;SDS011;5283;48.876;8.962;2023-08-01T02:55:17;10.70;;;7.00;;
10471;SDS011;5283;48.876;8.962;2023-08-01T02:57:44;12.43;;;6.60;;
10471;SDS011;5283;48.876;8.962;2023-08-01T03:00:11;9.23;;;6.47;;
10471;SDS011;5283;48.876;8.962;2023-08-01T03:02:54;9.17;;;6.43;;
10471;SDS011;5283;48.876;8.962;2023-08-01T03:05:21;8.70;;;7.20;;
10471;SDS011;5283;48.876;8.962;2023-08-01T03:07:48;7.67;;;6.87;;
10471;SDS011;5283;48.876;8.962;2023-08-01T03:10:16;9.50;;;6.63;;
10471;SDS011;5283;48.876;8.962;2023-08-01T03:12:48;8.83;;;6.93;;
10471;SDS011;5283;48.876;8.962;2023-08-01T03:15:15;8.97;;;6.37;;
10471;SDS011;5283;48.876;8.962;2023-08-01T03:17:42;9.17;;;6.30;;
10471;SDS011;5283;48.876;8.962;2023-08-01T03:20:09;7.97;;;6.40;;
10471;SDS011;5283;48.876;8.962;2023-08-01T03:22:38;7.97;;;5.80;;
10471;SDS011;5283;48.876;8.962;2023-08-01T03:25:06;8.00;;;5.80;;
10471;SDS011;5283;48.876;8.962;2023-08-01T03:27:34;9.03;;;6.03;;
10471;SDS011;5283;48.876;8.962;2023-08-01T03:30:02;7.90;;;5.93;;
10471;SDS011;5283;48.876;8.962;2023-08-01T03:32:35;6.97;;;5.27;;
10471;SDS011;5283;48.876;8.962;2023-08-01T03:35:04;6.87;;;5.83;;
10471;SDS011;5283;48.876;8.962;2023-08-01T03:37:32;8.33;;;5.37;;
10471;SDS011;5283;48.876;8.962;2023-08-01T03:39:59;7.10;;;5.70;;
10471;SDS011;5283;48.876;8.962;2023-08-01T03:42:26;8.03;;;5.90;;
10471;SDS011;5283;48.876;8.962;2023-08-01T03:44:53;8.67;;;5.60;;
10471;SDS011;5283;48.876;8.962;2023-08-01T03:47:20;6.80;;;5.43;;
10471;SDS011;5283;48.876;8.962;2023-08-01T03:50:02;7.83;;;5.43;;
10471;SDS011;5283;48.876;8.962;2023-08-01T03:52:29;6.03;;;5.20;;
10471;SDS011;5283;48.876;8.962;2023-08-01T03:54:58;6.83;;;5.40;;
10471;SDS011;5283;48.876;8.962;2023-08-01T03:57:25;7.17;;;5.20;;
10471;SDS011;5283;48.876;8.962;2023-08-01T03:59:52;6.33;;;5.00;;
10471;SDS011;5283;48.876;8.962;2023-08-01T04:02:19;7.97;;;4.87;;
10471;SDS011;5283;48.876;8.962;2023-08-01T04:04:46;8.73;;;5.13;;
10471;SDS011;5283;48.876;8.962;2023-08-01T04:07:14;5.43;;;4.73;;
10471;SDS011;5283;48.876;8.962;2023-08-01T04:09:41;6.50;;;4.67;;
10471;SDS011;5283;48.876;8.962;2023-08-01T04:12:08;7.83;;;4.70;;
10471;SDS011;5283;48.876;8.962;2023-08-01T04:14:36;5.87;;;4.57;;
10471;SDS011;5283;48.876;8.962;2023-08-01T04:17:03;6.57;;;3.80;;
10471;SDS011;5283;48.876;8.962;2023-08-01T04:19:30;6.20;;;4.03;;
10471;SDS011;5283;48.876;8.962;2023-08-01T04:21:57;5.57;;;3.70;;
10471;SDS011;5283;48.876;8.962;2023-08-01T04:24:25;7.30;;;3.80;;
10471;SDS011;5283;48.876;8.962;2023-08-01T04:26:54;5.80;;;3.40;;
10471;SDS011;5283;48.876;8.962;2023-08-01T04:29:21;4.40;;;3.60;;
10471;SDS011;5283;48.876;8.962;2023-08-01T04:31:50;5.93;;;3.60;;
10471;SDS011;5283;48.876;8.962;2023-08-01T04:34:18;5.20;;;3.70;;
10471;SDS011;5283;48.876;8.962;2023-08-01T04:36:45;4.40;;;3.53;;
10471;SDS011;5283;48.876;8.962;2023-08-01T04:39:12;5.10;;;3.23;;
10471;SDS011;5283;48.876;8.962;2023-08-01T04:41:39;4.33;;;3.40;;
10471;SDS011;5283;48.876;8.962;2023-08-01T04:44:07;4.90;;;3.27;;
10471;SDS011;5283;48.876;8.962;2023-08-01T04:46:34;4.70;;;3.30;;
10471;SDS011;5283;48.876;8.962;2023-08-01T04:49:02;5.53;;;3.23;;
10471;SDS011;5283;48.876;8.962;2023-08-01T04:51:29;5.10;;;3.20;;
10471;SDS011;5283;48.876;8.962;2023-08-01T04:53:56;5.30;;;3.20;;
10471;SDS011;5283;48.876;8.962;2023-08-01T04:56:31;8.00;;;3.10;;
10471;SDS011;5283;48.876;8.962;2023-08-01T04:58:58;5.23;;;3.50;;
10471;SDS011;5283;48.876;8.962;2023-08-01T05:01:25;4.50;;;3.37;;
10471;SDS011;5283;48.876;8.962;2023-08-01T05:03:52;3.47;;;3.17;;
10471;SDS011;5283;48.876;8.962;2023-08-01T05:06:19;4.90;;;3.10;;
10471;SDS011;5283;48.876;8.962;2023-08-01T05:08:46;3.00;;;2.60;;
10471;SDS011;5283;48.876;8.962;2023-08-01T05:11:13;3.33;;;2.93;;
10471;SDS011;5283;48.876;8.962;2023-08-01T05:13:50;3.20;;;2.73;;
10471;SDS011;5283;48.876;8.962;2023-08-01T05:16:26;3.63;;;2.80;;
10471;SDS011;5283;48.876;8.962;2023-08-01T05:18:56;3.47;;;2.80;;
10471;SDS011;5283;48.876;8.962;2023-08-01T05:21:26;4.20;;;3.03;;
10471;SDS011;5283;48.876;8.962;2023-08-01T05:23:59;3.53;;;2.70;;
10471;SDS011;5283;48.876;8.962;2023-08-01T05:26:27;3.37;;;2.83;;
10471;SDS011;5283;48.876;8.962;2023-08-01T05:28:54;3.73;;;2.90;;
10471;SDS011;5283;48.876;8.962;2023-08-01T05:31:21;4.13;;;2.80;;
10471;SDS011;5283;48.876;8.962;2023-08-01T05:33:48;4.40;;;3.00;;
10471;SDS011;5283;48.876;8.962;2023-08-01T05:36:15;3.57;;;3.20;;
10471;SDS011;5283;48.876;8.962;2023-08-01T05:38:42;4.00;;;3.10;;
10471;SDS011;5283;48.876;8.962;2023-08-01T05:41:09;4.13;;;3.07;;
10471;SDS011;5283;48.876;8.962;2023-08-01T05:43:36;3.80;;;3.10;;
10471;SDS011;5283;48.876;8.962;2023-08-01T05:46:03;4.70;;;3.40;;
10471;SDS011;5283;48.876;8.962;2023-08-01T05:48:31;4.37;;;3.40;;
10471;SDS011;5283;48.876;8.962;2023-08-01T05:50:58;3.73;;;3.00;;
10471;SDS011;5283;48.876;8.962;2023-08-01T05:53:25;6.50;;;3.50;;
10471;SDS011;5283;48.876;8.962;2023-08-01T05:55:53;5.47;;;3.00;;
10471;SDS011;5283;48.876;8.962;2023-08-01T05:58:20;3.30;;;3.00;;
10471;SDS011;5283;48.876;8.962;2023-08-01T06:00:48;4.40;;;3.50;;
10471;SDS011;5283;48.876;8.962;2023-08-01T06:03:15;4.90;;;3.37;;
10471;SDS011;5283;48.876;8.962;2023-08-01T06:05:42;4.03;;;3.50;;
10471;SDS011;5283;48.876;8.962;2023-08-01T06:08:09;3.73;;;3.37;;
10471;SDS011;5283;48.876;8.962;2023-08-01T06:10:36;5.70;;;3.50;;
10471;SDS011;5283;48.876;8.962;2023-08-01T06:13:04;4.37;;;3.53;;
10471;SDS011;5283;48.876;8.962;2023-08-01T06:15:31;5.27;;;3.37;;
10471;SDS011;5283;48.876;8.962;2023-08-01T06:17:58;4.33;;;3.60;;
10471;SDS011;5283;48.876;8.962;2023-08-01T06:20:25;17.67;;;4.47;;
10471;SDS011;5283;48.876;8.962;2023-08-01T06:22:52;6.57;;;4.17;;
10471;SDS011;5283;48.876;8.962;2023-08-01T06:25:19;5.03;;;4.17;;
10471;SDS011;5283;48.876;8.962;2023-08-01T06:27:55;8.50;;;5.10;;
10471;SDS011;5283;48.876;8.962;2023-08-01T06:30:26;7.73;;;5.03;;
10471;SDS011;5283;48.876;8.962;2023-08-01T06:32:55;7.77;;;4.90;;
10471;SDS011;5283;48.876;8.962;2023-08-01T06:35:26;5.27;;;4.47;;
10471;SDS011;5283;48.876;8.962;2023-08-01T06:37:56;6.40;;;4.73;;
10471;SDS011;5283;48.876;8.962;2023-08-01T06:40:23;7.60;;;4.90;;
10471;SDS011;5283;48.876;8.962;2023-08-01T06:42:57;5.63;;;4.90;;
10471;SDS011;5283;48.876;8.962;2023-08-01T06:45:24;8.53;;;4.80;;
10471;SDS011;5283;48.876;8.962;2023-08-01T06:47:51;6.97;;;5.57;;
10471;SDS011;5283;48.876;8.962;2023-08-01T06:50:18;7.47;;;5.70;;
10471;SDS011;5283;48.876;8.962;2023-08-01T06:52:45;7.20;;;6.03;;
10471;SDS011;5283;48.876;8.962;2023-08-01T06:55:12;8.70;;;6.10;;
10471;SDS011;5283;48.876;8.962;2023-08-01T06:57:57;7.40;;;5.90;;
10471;SDS011;5283;48.876;8.962;2023-08-01T07:00:24;8.00;;;5.97;;
10471;SDS011;5283;48.876;8.962;2023-08-01T07:02:51;8.20;;;6.20;;
10471;SDS011;5283;48.876;8.962;2023-08-01T07:05:19;8.83;;;6.77;;
10471;SDS011;5283;48.876;8.962;2023-08-01T07:07:58;7.57;;;5.90;;
10471;SDS011;5283;48.876;8.962;2023-08-01T07:10:25;9.37;;;6.37;;
10471;SDS011;5283;48.876;8.962;2023-08-01T07:12:52;8.50;;;6.63;;
10471;SDS011;5283;48.876;8.962;2023-08-01T07:15:26;7.80;;;6.40;;
10471;SDS011;5283;48.876;8.962;2023-08-01T07:17:56;10.10;;;6.77;;
10471;SDS011;5283;48.876;8.962;2023-08-01T07:20:23;9.00;;;6.47;;
10471;SDS011;5283;48.876;8.962;2023-08-01T07:22:50;8.40;;;6.30;;
10471;SDS011;5283;48.876;8.962;2023-08-01T07:25:17;8.93;;;6.30;;
10471;SDS011;5283;48.876;8.962;2023-08-01T07:27:45;7.53;;;6.50;;
10471;SDS011;5283;48.876;8.962;2023-08-01T07:30:13;9.00;;;6.10;;
10471;SDS011;5283;48.876;8.962;2023-08-01T07:32:45;8.47;;;6.70;;
10471;SDS011;5283;48.876;8.962;2023-08-01T07:35:13;8.50;;;6.80;;
10471;SDS011;5283;48.876;8.962;2023-08-01T07:37:40;8.23;;;6.90;;
10471;SDS011;5283;48.876;8.962;2023-08-01T07:40:08;10.03;;;6.70;;
10471;SDS011;5283;48.876;8.962;2023-08-01T07:42:38;7.80;;;6.40;;
10471;SDS011;5283;48.876;8.962;2023-08-01T07:45:05;8.20;;;6.50;;
10471;SDS011;5283;48.876;8.962;2023-08-01T07:47:33;9.60;;;6.67;;
10471;SDS011;5283;48.876;8.962;2023-08-01T07:50:11;7.50;;;5.93;;
10471;SDS011;5283;48.876;8.962;2023-08-01T07:52:41;6.90;;;6.20;;
10471;SDS011;5283;48.876;8.962;2023-08-01T07:55:11;7.13;;;5.50;;
10471;SDS011;5283;48.876;8.962;2023-08-01T07:57:41;6.00;;;5.50;;
10471;SDS011;5283;48.876;8.962;2023-08-01T08:00:11;7.50;;;5.10;;
10471;SDS011;5283;48.876;8.962;2023-08-01T08:02:44;6.83;;;4.90;;
10471;SDS011;5283;48.876;8.962;2023-08-01T08:05:12;5.30;;;4.70;;
10471;SDS011;5283;48.876;8.962;2023-08-01T08:07:39;5.07;;;4.57;;
10471;SDS011;5283;48.876;8.962;2023-08-01T08:10:06;5.17;;;4.63;;
10471;SDS011;5283;48.876;8.962;2023-08-01T08:12:33;4.97;;;4.47;;
10471;SDS011;5283;48.876;8.962;2023-08-01T08:15:00;4.73;;;4.20;;
10471;SDS011;5283;48.876;8.962;2023-08-01T08:17:28;4.83;;;4.33;;
10471;SDS011;5283;48.876;8.962;2023-08-01T08:19:55;5.67;;;4.07;;
10471;SDS011;5283;48.876;8.962;2023-08-01T08:22:22;4.43;;;4.00;;
10471;SDS011;5283;48.876;8.962;2023-08-01T08:24:54;5.47;;;3.90;;
10471;SDS011;5283;48.876;8.962;2023-08-01T08:27:21;4.63;;;3.50;;
10471;SDS011;5283;48.876;8.962;2023-08-01T08:29:49;4.37;;;3.77;;
10471;SDS011;5283;48.876;8.962;2023-08-01T08:32:17;3.70;;;3.40;;
10471;SDS011;5283;48.876;8.962;2023-08-01T08:34:59;4.40;;;3.20;;
10471;SDS011;5283;48.876;8.962;2023-08-01T08:37:29;4.00;;;2.80;;
10471;SDS011;5283;48.876;8.962;2023-08-01T08:39:59;2.97;;;2.67;;
10471;SDS011;5283;48.876;8.962;2023-08-01T08:42:29;3.07;;;2.43;;
10471;SDS011;5283;48.876;8.962;2023-08-01T08:44:57;3.73;;;2.63;;
10471;SDS011;5283;48.876;8.962;2023-08-01T08:47:27;2.63;;;2.43;;
10471;SDS011;5283;48.876;8.962;2023-08-01T08:49:57;2.33;;;2.20;;
10471;SDS011;5283;48.876;8.962;2023-08-01T08:52:26;4.53;;;2.13;;
10471;SDS011;5283;48.876;8.962;2023-08-01T08:54:53;1.93;;;1.83;;
10471;SDS011;5283;48.876;8.962;2023-08-01T08:57:21;3.17;;;1.80;;
10471;SDS011;5283;48.876;8.962;2023-08-01T08:59:48;2.00;;;1.90;;
10471;SDS011;5283;48.876;8.962;2023-08-01T09:02:17;2.07;;;1.93;;
10471;SDS011;5283;48.876;8.962;2023-08-01T09:04:44;2.07;;;1.90;;
10471;SDS011;5283;48.876;8.962;2023-08-01T09:07:12;2.37;;;2.07;;
10471;SDS011;5283;48.876;8.962;2023-08-01T09:09:40;2.30;;;2.00;;
10471;SDS011;5283;48.876;8.962;2023-08-01T09:12:08;3.90;;;2.30;;
10471;SDS011;5283;48.876;8.962;2023-08-01T09:14:36;2.17;;;1.90;;
10471;SDS011;5283;48.876;8.962;2023-08-01T09:17:06;2.70;;;1.70;;
10471;SDS011;5283;48.876;8.962;2023-08-01T09:19:34;1.90;;;1.80;;
10471;SDS011;5283;48.876;8.962;2023-08-01T09:22:02;2.57;;;1.70;;
10471;SDS011;5283;48.876;8.962;2023-08-01T09:24:50;3.00;;;2.20;;
10471;SDS011;5283;48.876;8.962;2023-08-01T09:27:17;2.03;;;1.93;;
10471;SDS011;5283;48.876;8.962;2023-08-01T09:29:46;2.17;;;1.67;;
10471;SDS011;5283;48.876;8.962;2023-08-01T09:32:13;2.30;;;1.63;;
10471;SDS011;5283;48.876;8.962;2023-08-01T09:34:41;1.73;;;1.30;;
10471;SDS011;5283;48.876;8.962;2023-08-01T09:37:09;1.13;;;0.97;;
10471;SDS011;5283;48.876;8.962;2023-08-01T09:39:36;2.53;;;1.30;;
10471;SDS011;5283;48.876;8.962;2023-08-01T09:42:03;2.70;;;1.17;;
10471;SDS011;5283;48.876;8.962;2023-08-01T09:44:30;1.83;;;1.37;;
10471;SDS011;5283;48.876;8.962;2023-08-01T09:47:00;0.70;;;0.70;;
10471;SDS011;5283;48.876;8.962;2023-08-01T09:49:28;0.70;;;0.70;;
10471;SDS011;5283;48.876;8.962;2023-08-01T09:51:56;0.50;;;0.50;;
10471;SDS011;5283;48.876;8.962;2023-08-01T09:54:24;0.40;;;0.40;;
10471;SDS011;5283;48.876;8.962;2023-08-01T09:56:51;0.50;;;0.50;;
10471;SDS011;5283;48.876;8.962;2023-08-01T09:59:23;0.40;;;0.40;;
10471;SDS011;5283;48.876;8.962;2023-08-01T10:01:51;0.80;;;0.70;;
10471;SDS011;5283;48.876;8.962;2023-08-01T10:04:20;0.67;;;0.40;;
10471;SDS011;5283;48.876;8.962;2023-08-01T10:07:07;0.70;;;0.70;;
10471;SDS011;5283;48.876;8.962;2023-08-01T10:09:40;0.30;;;0.30;;
10471;SDS011;5283;48.876;8.962;2023-08-01T10:12:07;0.63;;;0.50;;
10471;SDS011;5283;48.876;8.962;2023-08-01T10:14:39;0.50;;;0.50;;
10471;SDS011;5283;48.876;8.962;2023-08-01T10:17:06;0.70;;;0.70;;
10471;SDS011;5283;48.876;8.962;2023-08-01T10:19:34;0.57;;;0.57;;
10471;SDS011;5283;48.876;8.962;2023-08-01T10:22:02;0.60;;;0.50;;
10471;SDS011;5283;48.876;8.962;2023-08-01T10:24:29;0.83;;;0.60;;
10471;SDS011;5283;48.876;8.962;2023-08-01T10:26:56;0.70;;;0.70;;
10471;SDS011;5283;48.876;8.962;2023-08-01T10:29:34;0.50;;;0.50;;
10471;SDS011;5283;48.876;8.962;2023-08-01T10:32:02;2.60;;;0.90;;
10471;SDS011;5283;48.876;8.962;2023-08-01T10:34:29;1.40;;;0.70;;
10471;SDS011;5283;48.876;8.962;2023-08-01T10:36:59;1.20;;;0.87;;
10471;SDS011;5283;48.876;8.962;2023-08-01T10:39:26;0.80;;;0.80;;
10471;SDS011;5283;48.876;8.962;2023-08-01T10:42:00;1.70;;;1.10;;
10471;SDS011;5283;48.876;8.962;2023-08-01T10:44:31;0.87;;;0.80;;
10471;SDS011;5283;48.876;8.962;2023-08-01T10:47:01;0.80;;;0.80;;
10471;SDS011;5283;48.876;8.962;2023-08-01T10:49:36;1.10;;;1.00;;
10471;SDS011;5283;48.876;8.962;2023-08-01T10:52:42;1.13;;;1.07;;
10471;SDS011;5283;48.876;8.962;2023-08-01T10:55:03;1.70;;;0.90;;
10471;SDS011;5283;48.876;8.962;2023-08-01T10:57:33;0.93;;;0.93;;
10471;SDS011;5283;48.876;8.962;2023-08-01T11:00:02;3.53;;;1.13;;
10471;SDS011;5283;48.876;8.962;2023-08-01T11:02:35;2.40;;;1.23;;
10471;SDS011;5283;48.876;8.962;2023-08-01T11:05:03;0.90;;;0.83;;
10471;SDS011;5283;48.876;8.962;2023-08-01T11:07:32;1.33;;;1.00;;
10471;SDS011;5283;48.876;8.962;2023-08-01T11:10:13;1.23;;;1.13;;
10471;SDS011;5283;48.876;8.962;2023-08-01T11:12:40;1.60;;;0.73;;
10471;SDS011;5283;48.876;8.962;2023-08-01T11:15:10;1.47;;;1.10;;
10471;SDS011;5283;48.876;8.962;2023-08-01T11:17:39;1.40;;;1.10;;
10471;SDS011;5283;48.876;8.962;2023-08-01T11:20:08;1.57;;;1.33;;
10471;SDS011;5283;48.876;8.962;2023-08-01T11:22:37;2.80;;;1.20;;
10471;SDS011;5283;48.876;8.962;2023-08-01T11:25:05;1.47;;;1.37;;
10471;SDS011;5283;48.876;8.962;2023-08-01T11:27:32;1.37;;;1.27;;
10471;SDS011;5283;48.876;8.962;2023-08-01T11:30:00;1.47;;;1.37;;
10471;SDS011;5283;48.876;8.962;2023-08-01T11:32:37;1.10;;;1.10;;
10471;SDS011;5283;48.876;8.962;2023-08-01T11:35:05;1.17;;;1.17;;
10471;SDS011;5283;48.876;8.962;2023-08-01T11:37:32;2.27;;;1.63;;
10471;SDS011;5283;48.876;8.962;2023-08-01T11:39:59;2.43;;;1.30;;
10471;SDS011;5283;48.876;8.962;2023-08-01T11:42:30;2.53;;;1.40;;
10471;SDS011;5283;48.876;8.962;2023-08-01T11:45:11;1.57;;;1.40;;
10471;SDS011;5283;48.876;8.962;2023-08-01T11:47:44;1.60;;;1.40;;
10471;SDS011;5283;48.876;8.962;2023-08-01T11:50:12;3.40;;;1.40;;
10471;SDS011;5283;48.876;8.962;2023-08-01T11:52:40;1.40;;;1.30;;
10471;SDS011;5283;48.876;8.962;2023-08-01T11:55:07;2.67;;;1.20;;
10471;SDS011;5283;48.876;8.962;2023-08-01T11:57:34;1.50;;;1.40;;
10471;SDS011;5283;48.876;8.962;2023-08-01T12:00:01;2.23;;;1.43;;
10471;SDS011;5283;48.876;8.962;2023-08-01T12:02:28;2.33;;;1.37;;
10471;SDS011;5283;48.876;8.962;2023-08-01T12:04:58;1.93;;;1.60;;
10471;SDS011;5283;48.876;8.962;2023-08-01T12:07:25;2.50;;;1.60;;
10471;SDS011;5283;48.876;8.962;2023-08-01T12:09:56;1.50;;;1.30;;
10471;SDS011;5283;48.876;8.962;2023-08-01T12:12:27;2.10;;;1.40;;
10471;SDS011;5283;48.876;8.962;2023-08-01T12:14:55;2.77;;;1.53;;
10471;SDS011;5283;48.876;8.962;2023-08-01T12:17:22;2.93;;;1.87;;
10471;SDS011;5283;48.876;8.962;2023-08-01T12:19:49;3.40;;;1.50;;
10471;SDS011;5283;48.876;8.962;2023-08-01T12:22:16;4.20;;;1.33;;
10471;SDS011;5283;48.876;8.962;2023-08-01T12:24:43;2.50;;;1.30;;
10471;SDS011;5283;48.876;8.962;2023-08-01T12:27:09;1.40;;;1.30;;
10471;SDS011;5283;48.876;8.962;2023-08-01T12:29:36;1.63;;;1.53;;
10471;SDS011;5283;48.876;8.962;2023-08-01T12:32:03;2.13;;;1.50;;
10471;SDS011;5283;48.876;8.962;2023-08-01T12:34:31;2.20;;;1.20;;
10471;SDS011;5283;48.876;8.962;2023-08-01T12:36:57;2.50;;;1.40;;
10471;SDS011;5283;48.876;8.962;2023-08-01T12:39:24;3.93;;;1.80;;
10471;SDS011;5283;48.876;8.962;2023-08-01T12:41:52;1.53;;;1.40;;
10471;SDS011;5283;48.876;8.962;2023-08-01T12:44:22;2.07;;;1.40;;
10471;SDS011;5283;48.876;8.962;2023-08-01T12:46:49;2.03;;;1.40;;
10471;SDS011;5283;48.876;8.962;2023-08-01T12:49:17;1.83;;;1.50;;
10471;SDS011;5283;48.876;8.962;2023-08-01T12:51:44;2.10;;;1.77;;
10471;SDS011;5283;48.876;8.962;2023-08-01T12:54:11;2.10;;;1.40;;
10471;SDS011;5283;48.876;8.962;2023-08-01T12:56:38;1.73;;;1.60;;
10471;SDS011;5283;48.876;8.962;2023-08-01T12:59:05;2.03;;;1.30;;
10471;SDS011;5283;48.876;8.962;2023-08-01T13:01:32;2.17;;;1.37;;
10471;SDS011;5283;48.876;8.962;2023-08-01T13:03:59;2.20;;;1.60;;
10471;SDS011;5283;48.876;8.962;2023-08-01T13:06:25;1.40;;;1.30;;
10471;SDS011;5283;48.876;8.962;2023-08-01T13:08:52;1.47;;;1.37;;
10471;SDS011;5283;48.876;8.962;2023-08-01T13:11:19;2.50;;;1.37;;
10471;SDS011;5283;48.876;8.962;2023-08-01T13:13:46;2.63;;;1.30;;
10471;SDS011;5283;48.876;8.962;2023-08-01T13:16:13;2.73;;;1.27;;
10471;SDS011;5283;48.876;8.962;2023-08-01T13:18:40;2.57;;;1.43;;
10471;SDS011;5283;48.876;8.962;2023-08-01T13:21:10;5.30;;;1.80;;
10471;SDS011;5283;48.876;8.962;2023-08-01T13:23:37;1.93;;;1.67;;
10471;SDS011;5283;48.876;8.962;2023-08-01T13:26:04;1.80;;;1.40;;
10471;SDS011;5283;48.876;8.962;2023-08-01T13:28:31;1.60;;;1.50;;
10471;SDS011;5283;48.876;8.962;2023-08-01T13:30:58;2.47;;;1.43;;
10471;SDS011;5283;48.876;8.962;2023-08-01T13:33:25;1.43;;;1.33;;
10471;SDS011;5283;48.876;8.962;2023-08-01T13:35:52;2.20;;;1.43;;
10471;SDS011;5283;48.876;8.962;2023-08-01T13:38:20;2.60;;;1.50;;
10471;SDS011;5283;48.876;8.962;2023-08-01T13:40:46;1.87;;;1.40;;
10471;SDS011;5283;48.876;8.962;2023-08-01T13:43:13;1.70;;;1.40;;
10471;SDS011;5283;48.876;8.962;2023-08-01T13:45:40;1.50;;;1.40;;
10471;SDS011;5283;48.876;8.962;2023-08-01T13:48:07;2.73;;;1.57;;
10471;SDS011;5283;48.876;8.962;2023-08-01T13:50:34;3.00;;;1.70;;
10471;SDS011;5283;48.876;8.962;2023-08-01T13:53:01;1.33;;;1.23;;
10471;SDS011;5283;48.876;8.962;2023-08-01T13:55:28;2.30;;;1.80;;
10471;SDS011;5283;48.876;8.962;2023-08-01T13:57:55;2.73;;;1.33;;
10471;SDS011;5283;48.876;8.962;2023-08-01T14:00:21;1.70;;;1.47;;
10471;SDS011;5283;48.876;8.962;2023-08-01T14:02:51;1.57;;;1.33;;
10471;SDS011;5283;48.876;8.962;2023-08-01T14:05:18;1.60;;;1.50;;
10471;SDS011;5283;48.876;8.962;2023-08-01T14:07:45;1.60;;;1.43;;
10471;SDS011;5283;48.876;8.962;2023-08-01T14:10:12;1.83;;;1.50;;
10471;SDS011;5283;48.876;8.962;2023-08-01T14:12:40;1.87;;;1.50;;
10471;SDS011;5283;48.876;8.962;2023-08-01T14:15:07;1.50;;;1.40;;
10471;SDS011;5283;48.876;8.962;2023-08-01T14:17:35;2.30;;;1.67;;
10471;SDS011;5283;48.876;8.962;2023-08-01T14:20:02;2.13;;;1.33;;
10471;SDS011;5283;48.876;8.962;2023-08-01T14:22:33;2.63;;;1.77;;
10471;SDS011;5283;48.876;8.962;2023-08-01T14:25:00;1.40;;;1.30;;
10471;SDS011;5283;48.876;8.962;2023-08-01T14:27:27;2.30;;;1.50;;
10471;SDS011;5283;48.876;8.962;2023-08-01T14:29:54;1.77;;;1.37;;
10471;SDS011;5283;48.876;8.962;2023-08-01T14:32:20;1.90;;;1.80;;
10471;SDS011;5283;48.876;8.962;2023-08-01T14:34:47;3.63;;;2.00;;
10471;SDS011;5283;48.876;8.962;2023-08-01T14:37:14;1.97;;;1.50;;
10471;SDS011;5283;48.876;8.962;2023-08-01T14:39:41;2.23;;;1.50;;
10471;SDS011;5283;48.876;8.962;2023-08-01T14:42:07;1.93;;;1.50;;
10471;SDS011;5283;48.876;8.962;2023-08-01T14:44:34;2.40;;;1.50;;
10471;SDS011;5283;48.876;8.962;2023-08-01T14:47:01;1.70;;;1.50;;
10471;SDS011;5283;48.876;8.962;2023-08-01T14:49:28;2.83;;;1.43;;
10471;SDS011;5283;48.876;8.962;2023-08-01T14:51:55;1.93;;;1.40;;
10471;SDS011;5283;48.876;8.962;2023-08-01T14:54:22;3.40;;;1.60;;
10471;SDS011;5283;48.876;8.962;2023-08-01T14:56:59;1.37;;;1.23;;
10471;SDS011;5283;48.876;8.962;2023-08-01T14:59:25;1.33;;;1.23;;
10471;SDS011;5283;48.876;8.962;2023-08-01T15:01:52;1.80;;;1.47;;
10471;SDS011;5283;48.876;8.962;2023-08-01T15:04:19;1.30;;;1.03;;
10471;SDS011;5283;48.876;8.962;2023-08-01T15:06:46;2.53;;;1.50;;
10471;SDS011;5283;48.876;8.962;2023-08-01T15:09:13;1.33;;;1.23;;
10471;SDS011;5283;48.876;8.962;2023-08-01T15:11:40;3.30;;;1.67;;